sensor_id;sensor_type;location;lat;lon;timestamp;temperature;humidity
40255;DHT22;25973;52.368;4.940;2022-09-20T00:00:50;14.90;99.90
40255;DHT22;25973;52.368;4.940;2022-09-20T00:03:16;14.90;99.90
40255;DHT22;25973;52.368;4.940;2022-09-20T00:05:44;14.80;99.90
40255;DHT22;25973;52.368;4.940;2022-09-20T00:08:12;14.80;99.90
40255;DHT22;25973;52.368;4.940;2022-09-20T00:10:38;14.70;99.90
40255;DHT22;25973;52.368;4.940;2022-09-20T00:13:05;14.80;99.90
40255;DHT22;25973;52.368;4.940;2022-09-20T00:15:32;14.70;99.90
40255;DHT22;25973;52.368;4.940;2022-09-20T00:17:58;14.70;99.90
40255;DHT22;25973;52.368;4.940;2022-09-20T00:20:23;14.80;99.90
40255;DHT22;25973;52.368;4.940;2022-09-20T00:22:49;14.70;99.90
40255;DHT22;25973;52.368;4.940;2022-09-20T00:25:16;14.70;99.90
40255;DHT22;25973;52.368;4.940;2022-09-20T00:27:42;14.70;99.90
40255;DHT22;25973;52.368;4.940;2022-09-20T00:30:09;14.70;99.90
40255;DHT22;25973;52.368;4.940;2022-09-20T00:32:35;14.70;99.90
40255;DHT22;25973;52.368;4.940;2022-09-20T00:35:01;14.70;99.90
40255;DHT22;25973;52.368;4.940;2022-09-20T00:37:40;14.70;99.90
40255;DHT22;25973;52.368;4.940;2022-09-20T00:40:15;14.80;99.90
40255;DHT22;25973;52.368;4.940;2022-09-20T00:42:41;14.80;99.90
40255;DHT22;25973;52.368;4.940;2022-09-20T00:45:11;14.70;99.90
40255;DHT22;25973;52.368;4.940;2022-09-20T00:51:00;14.80;99.90
40255;DHT22;25973;52.368;4.940;2022-09-20T00:55:52;14.80;99.90
40255;DHT22;25973;52.368;4.940;2022-09-20T00:58:19;14.80;99.90
40255;DHT22;25973;52.368;4.940;2022-09-20T01:00:46;14.80;99.90
40255;DHT22;25973;52.368;4.940;2022-09-20T01:03:14;14.80;99.90
40255;DHT22;25973;52.368;4.940;2022-09-20T01:05:43;14.80;99.90
40255;DHT22;25973;52.368;4.940;2022-09-20T01:08:09;14.80;99.90
40255;DHT22;25973;52.368;4.940;2022-09-20T01:10:35;14.80;99.90
40255;DHT22;25973;52.368;4.940;2022-09-20T01:13:01;14.80;99.90
40255;DHT22;25973;52.368;4.940;2022-09-20T01:15:28;14.80;99.90
40255;DHT22;25973;52.368;4.940;2022-09-20T01:17:56;14.80;99.90
40255;DHT22;25973;52.368;4.940;2022-09-20T01:20:29;14.80;99.90
40255;DHT22;25973;52.368;4.940;2022-09-20T01:28:30;14.80;99.90
40255;DHT22;25973;52.368;4.940;2022-09-20T01:33:44;14.70;99.90
40255;DHT22;25973;52.368;4.940;2022-09-20T01:36:15;14.70;99.90
40255;DHT22;25973;52.368;4.940;2022-09-20T01:38:46;14.70;99.90
40255;DHT22;25973;52.368;4.940;2022-09-20T01:42:03;14.70;99.90
40255;DHT22;25973;52.368;4.940;2022-09-20T02:22:12;14.20;99.90
40255;DHT22;25973;52.368;4.940;2022-09-20T02:31:08;14.20;99.90
40255;DHT22;25973;52.368;4.940;2022-09-20T02:36:12;14.10;99.90
40255;DHT22;25973;52.368;4.940;2022-09-20T02:38:58;14.10;99.90
40255;DHT22;25973;52.368;4.940;2022-09-20T02:44:47;14.00;99.90
40255;DHT22;25973;52.368;4.940;2022-09-20T02:50:13;13.90;99.90
40255;DHT22;25973;52.368;4.940;2022-09-20T03:04:17;13.80;99.90
40255;DHT22;25973;52.368;4.940;2022-09-20T03:12:56;13.70;99.90
40255;DHT22;25973;52.368;4.940;2022-09-20T03:18:24;13.70;99.90
40255;DHT22;25973;52.368;4.940;2022-09-20T03:20:57;13.70;99.90
40255;DHT22;25973;52.368;4.940;2022-09-20T03:28:35;13.70;99.90
40255;DHT22;25973;52.368;4.940;2022-09-20T03:36:28;13.60;99.90
40255;DHT22;25973;52.368;4.940;2022-09-20T03:42:26;13.60;99.90
40255;DHT22;25973;52.368;4.940;2022-09-20T03:48:19;13.60;99.90
40255;DHT22;25973;52.368;4.940;2022-09-20T03:56:22;13.60;99.90
40255;DHT22;25973;52.368;4.940;2022-09-20T04:01:49;13.50;99.90
40255;DHT22;25973;52.368;4.940;2022-09-20T04:04:23;13.50;99.90
40255;DHT22;25973;52.368;4.940;2022-09-20T04:06:58;13.50;99.90
40255;DHT22;25973;52.368;4.940;2022-09-20T04:15:21;13.40;99.90
40255;DHT22;25973;52.368;4.940;2022-09-20T04:20:45;13.30;99.90
40255;DHT22;25973;52.368;4.940;2022-09-20T04:23:41;13.30;99.90
40255;DHT22;25973;52.368;4.940;2022-09-20T04:26:03;13.30;99.90
40255;DHT22;25973;52.368;4.940;2022-09-20T04:34:29;13.20;99.90
40255;DHT22;25973;52.368;4.940;2022-09-20T04:37:26;13.30;99.90
40255;DHT22;25973;52.368;4.940;2022-09-20T04:46:16;13.30;99.90
40255;DHT22;25973;52.368;4.940;2022-09-20T05:00:11;13.30;99.90
40255;DHT22;25973;52.368;4.940;2022-09-20T05:14:43;13.20;99.90
40255;DHT22;25973;52.368;4.940;2022-09-20T05:17:23;13.20;99.90
40255;DHT22;25973;52.368;4.940;2022-09-20T05:28:09;13.10;99.90
40255;DHT22;25973;52.368;4.940;2022-09-20T05:30:46;13.20;99.90
40255;DHT22;25973;52.368;4.940;2022-09-20T05:33:42;13.10;99.90
40255;DHT22;25973;52.368;4.940;2022-09-20T05:36:37;13.10;99.90
40255;DHT22;25973;52.368;4.940;2022-09-20T05:42:01;13.10;99.90
40255;DHT22;25973;52.368;4.940;2022-09-20T05:58:29;13.20;99.90
40255;DHT22;25973;52.368;4.940;2022-09-20T06:01:06;13.20;99.90
40255;DHT22;25973;52.368;4.940;2022-09-20T06:03:39;13.20;99.90
40255;DHT22;25973;52.368;4.940;2022-09-20T06:06:21;13.20;99.90
40255;DHT22;25973;52.368;4.940;2022-09-20T06:15:17;13.30;99.90
40255;DHT22;25973;52.368;4.940;2022-09-20T06:17:33;13.40;99.90
40255;DHT22;25973;52.368;4.940;2022-09-20T06:20:19;13.50;99.90
40255;DHT22;25973;52.368;4.940;2022-09-20T06:22:54;13.50;99.90
40255;DHT22;25973;52.368;4.940;2022-09-20T06:25:38;13.60;99.90
40255;DHT22;25973;52.368;4.940;2022-09-20T06:28:13;13.60;99.90
40255;DHT22;25973;52.368;4.940;2022-09-20T06:30:51;13.70;99.90
40255;DHT22;25973;52.368;4.940;2022-09-20T06:36:07;13.80;99.90
40255;DHT22;25973;52.368;4.940;2022-09-20T06:42:03;14.00;99.90
40255;DHT22;25973;52.368;4.940;2022-09-20T06:44:28;14.00;99.90
40255;DHT22;25973;52.368;4.940;2022-09-20T06:46:54;14.00;99.90
40255;DHT22;25973;52.368;4.940;2022-09-20T06:49:21;14.10;99.90
40255;DHT22;25973;52.368;4.940;2022-09-20T06:51:46;14.10;99.90
40255;DHT22;25973;52.368;4.940;2022-09-20T06:54:17;14.10;99.90
40255;DHT22;25973;52.368;4.940;2022-09-20T06:56:44;14.10;99.90
40255;DHT22;25973;52.368;4.940;2022-09-20T06:59:11;14.20;99.90
40255;DHT22;25973;52.368;4.940;2022-09-20T07:01:37;14.20;99.90
40255;DHT22;25973;52.368;4.940;2022-09-20T07:04:03;14.20;99.90
40255;DHT22;25973;52.368;4.940;2022-09-20T07:06:30;14.20;99.90
40255;DHT22;25973;52.368;4.940;2022-09-20T07:08:56;14.30;99.90
40255;DHT22;25973;52.368;4.940;2022-09-20T07:11:22;14.30;99.90
40255;DHT22;25973;52.368;4.940;2022-09-20T07:13:52;14.40;99.90
40255;DHT22;25973;52.368;4.940;2022-09-20T07:16:19;14.50;99.90
40255;DHT22;25973;52.368;4.940;2022-09-20T07:18:45;14.70;99.90
40255;DHT22;25973;52.368;4.940;2022-09-20T07:21:12;14.80;99.90
40255;DHT22;25973;52.368;4.940;2022-09-20T07:23:38;14.80;99.90
40255;DHT22;25973;52.368;4.940;2022-09-20T07:26:03;14.90;99.90
40255;DHT22;25973;52.368;4.940;2022-09-20T07:28:31;15.00;99.90
40255;DHT22;25973;52.368;4.940;2022-09-20T07:30:57;15.10;99.90
40255;DHT22;25973;52.368;4.940;2022-09-20T07:33:23;15.00;99.90
40255;DHT22;25973;52.368;4.940;2022-09-20T07:35:53;15.10;99.90
40255;DHT22;25973;52.368;4.940;2022-09-20T07:38:20;15.00;99.90
40255;DHT22;25973;52.368;4.940;2022-09-20T07:40:59;15.00;99.90
40255;DHT22;25973;52.368;4.940;2022-09-20T07:43:27;15.00;99.90
40255;DHT22;25973;52.368;4.940;2022-09-20T07:45:54;14.90;99.90
40255;DHT22;25973;52.368;4.940;2022-09-20T07:48:21;14.90;99.90
40255;DHT22;25973;52.368;4.940;2022-09-20T07:50:55;14.90;99.90
40255;DHT22;25973;52.368;4.940;2022-09-20T07:53:21;14.90;99.90
40255;DHT22;25973;52.368;4.940;2022-09-20T07:56:02;14.90;99.90
40255;DHT22;25973;52.368;4.940;2022-09-20T07:58:30;14.90;99.90
40255;DHT22;25973;52.368;4.940;2022-09-20T08:00:57;15.00;99.90
40255;DHT22;25973;52.368;4.940;2022-09-20T08:03:23;15.10;99.90
40255;DHT22;25973;52.368;4.940;2022-09-20T08:05:49;15.10;99.90
40255;DHT22;25973;52.368;4.940;2022-09-20T08:08:18;15.20;99.90
40255;DHT22;25973;52.368;4.940;2022-09-20T08:10:44;15.20;99.90
40255;DHT22;25973;52.368;4.940;2022-09-20T08:13:13;15.20;99.90
40255;DHT22;25973;52.368;4.940;2022-09-20T08:15:40;15.20;99.90
40255;DHT22;25973;52.368;4.940;2022-09-20T08:18:07;15.20;99.90
40255;DHT22;25973;52.368;4.940;2022-09-20T08:20:37;15.30;99.90
40255;DHT22;25973;52.368;4.940;2022-09-20T08:23:06;15.30;99.90
40255;DHT22;25973;52.368;4.940;2022-09-20T08:25:39;15.40;99.90
40255;DHT22;25973;52.368;4.940;2022-09-20T08:28:05;15.40;99.90
40255;DHT22;25973;52.368;4.940;2022-09-20T08:30:30;15.30;99.90
40255;DHT22;25973;52.368;4.940;2022-09-20T08:32:56;15.30;99.90
40255;DHT22;25973;52.368;4.940;2022-09-20T08:35:21;15.30;99.90
40255;DHT22;25973;52.368;4.940;2022-09-20T08:37:47;15.20;99.90
40255;DHT22;25973;52.368;4.940;2022-09-20T08:40:13;15.20;99.90
40255;DHT22;25973;52.368;4.940;2022-09-20T08:42:41;15.20;99.90
40255;DHT22;25973;52.368;4.940;2022-09-20T08:45:18;15.20;99.90
40255;DHT22;25973;52.368;4.940;2022-09-20T08:47:51;15.20;99.90
40255;DHT22;25973;52.368;4.940;2022-09-20T08:50:18;15.10;99.90
40255;DHT22;25973;52.368;4.940;2022-09-20T08:52:48;15.10;99.90
40255;DHT22;25973;52.368;4.940;2022-09-20T08:55:26;15.00;99.90
40255;DHT22;25973;52.368;4.940;2022-09-20T08:57:57;14.80;99.90
40255;DHT22;25973;52.368;4.940;2022-09-20T09:00:32;14.80;99.90
40255;DHT22;25973;52.368;4.940;2022-09-20T09:03:03;14.70;99.90
40255;DHT22;25973;52.368;4.940;2022-09-20T09:05:39;14.60;99.90
40255;DHT22;25973;52.368;4.940;2022-09-20T09:08:10;14.60;99.90
40255;DHT22;25973;52.368;4.940;2022-09-20T09:10:43;14.60;99.90
40255;DHT22;25973;52.368;4.940;2022-09-20T09:13:42;14.50;99.90
40255;DHT22;25973;52.368;4.940;2022-09-20T09:16:14;14.60;99.90
40255;DHT22;25973;52.368;4.940;2022-09-20T09:18:45;14.60;99.90
40255;DHT22;25973;52.368;4.940;2022-09-20T09:21:20;14.60;99.90
40255;DHT22;25973;52.368;4.940;2022-09-20T09:23:52;14.70;99.90
40255;DHT22;25973;52.368;4.940;2022-09-20T09:26:23;14.80;99.90
40255;DHT22;25973;52.368;4.940;2022-09-20T09:31:32;15.20;99.90
40255;DHT22;25973;52.368;4.940;2022-09-20T09:33:58;15.30;99.90
40255;DHT22;25973;52.368;4.940;2022-09-20T09:36:25;15.30;99.90
40255;DHT22;25973;52.368;4.940;2022-09-20T09:39:21;15.40;99.90
40255;DHT22;25973;52.368;4.940;2022-09-20T09:41:47;15.40;99.90
40255;DHT22;25973;52.368;4.940;2022-09-20T09:44:30;15.50;99.90
40255;DHT22;25973;52.368;4.940;2022-09-20T09:46:58;15.50;99.90
40255;DHT22;25973;52.368;4.940;2022-09-20T09:49:28;15.60;99.90
40255;DHT22;25973;52.368;4.940;2022-09-20T09:52:17;15.70;99.90
40255;DHT22;25973;52.368;4.940;2022-09-20T09:54:50;15.80;99.90
40255;DHT22;25973;52.368;4.940;2022-09-20T10:00:23;16.10;99.90
40255;DHT22;25973;52.368;4.940;2022-09-20T10:08:26;18.30;99.90
40255;DHT22;25973;52.368;4.940;2022-09-20T10:14:14;24.10;99.70
40255;DHT22;25973;52.368;4.940;2022-09-20T10:28:21;24.10;94.70
40255;DHT22;25973;52.368;4.940;2022-09-20T10:31:13;23.20;95.80
40255;DHT22;25973;52.368;4.940;2022-09-20T10:36:52;21.50;98.10
40255;DHT22;25973;52.368;4.940;2022-09-20T10:48:08;20.70;99.10
40255;DHT22;25973;52.368;4.940;2022-09-20T10:50:54;20.40;98.60
40255;DHT22;25973;52.368;4.940;2022-09-20T11:10:17;20.50;99.20
40255;DHT22;25973;52.368;4.940;2022-09-20T11:13:39;20.40;99.40
40255;DHT22;25973;52.368;4.940;2022-09-20T11:18:46;20.00;98.50
40255;DHT22;25973;52.368;4.940;2022-09-20T11:29:35;19.40;99.90
40255;DHT22;25973;52.368;4.940;2022-09-20T11:32:29;19.30;99.90
40255;DHT22;25973;52.368;4.940;2022-09-20T11:37:44;19.10;97.50
40255;DHT22;25973;52.368;4.940;2022-09-20T11:40:25;18.80;97.50
40255;DHT22;25973;52.368;4.940;2022-09-20T11:43:05;18.50;97.20
40255;DHT22;25973;52.368;4.940;2022-09-20T11:45:33;18.30;97.90
40255;DHT22;25973;52.368;4.940;2022-09-20T11:48:06;18.20;98.80
40255;DHT22;25973;52.368;4.940;2022-09-20T11:58:49;18.40;99.90
40255;DHT22;25973;52.368;4.940;2022-09-20T12:01:27;18.30;99.90
40255;DHT22;25973;52.368;4.940;2022-09-20T12:03:56;18.20;99.90
40255;DHT22;25973;52.368;4.940;2022-09-20T12:08:51;18.00;99.90
40255;DHT22;25973;52.368;4.940;2022-09-20T12:11:31;17.90;99.90
40255;DHT22;25973;52.368;4.940;2022-09-20T12:14:06;17.80;99.90
40255;DHT22;25973;52.368;4.940;2022-09-20T12:16:38;17.70;99.90
40255;DHT22;25973;52.368;4.940;2022-09-20T12:19:07;17.60;99.90
40255;DHT22;25973;52.368;4.940;2022-09-20T12:24:30;17.30;99.90
40255;DHT22;25973;52.368;4.940;2022-09-20T12:26:57;17.20;99.90
40255;DHT22;25973;52.368;4.940;2022-09-20T12:31:52;17.10;99.90
40255;DHT22;25973;52.368;4.940;2022-09-20T12:39:27;17.10;99.90
40255;DHT22;25973;52.368;4.940;2022-09-20T12:41:59;17.20;99.90
40255;DHT22;25973;52.368;4.940;2022-09-20T12:49:40;17.50;99.90
40255;DHT22;25973;52.368;4.940;2022-09-20T13:03:32;17.90;99.90
40255;DHT22;25973;52.368;4.940;2022-09-20T13:08:44;18.00;99.90
40255;DHT22;25973;52.368;4.940;2022-09-20T13:11:18;18.10;99.90
40255;DHT22;25973;52.368;4.940;2022-09-20T13:13:51;18.10;99.90
40255;DHT22;25973;52.368;4.940;2022-09-20T13:19:14;18.30;99.90
40255;DHT22;25973;52.368;4.940;2022-09-20T13:22:02;18.40;99.90
40255;DHT22;25973;52.368;4.940;2022-09-20T13:24:33;18.40;99.90
40255;DHT22;25973;52.368;4.940;2022-09-20T13:27:05;18.50;99.90
40255;DHT22;25973;52.368;4.940;2022-09-20T13:29:33;18.60;99.90
40255;DHT22;25973;52.368;4.940;2022-09-20T13:32:25;18.50;99.90
40255;DHT22;25973;52.368;4.940;2022-09-20T13:35:16;18.40;99.90
40255;DHT22;25973;52.368;4.940;2022-09-20T13:37:55;18.30;99.90
40255;DHT22;25973;52.368;4.940;2022-09-20T13:40:33;18.30;99.90
40255;DHT22;25973;52.368;4.940;2022-09-20T13:43:01;18.30;99.90
40255;DHT22;25973;52.368;4.940;2022-09-20T13:45:27;18.30;99.90
40255;DHT22;25973;52.368;4.940;2022-09-20T13:47:58;18.20;99.90
40255;DHT22;25973;52.368;4.940;2022-09-20T13:50:31;17.90;99.90
40255;DHT22;25973;52.368;4.940;2022-09-20T13:52:59;17.60;99.90
40255;DHT22;25973;52.368;4.940;2022-09-20T13:57:54;17.10;99.90
40255;DHT22;25973;52.368;4.940;2022-09-20T14:00:23;16.90;99.90
40255;DHT22;25973;52.368;4.940;2022-09-20T14:02:51;16.90;99.90
40255;DHT22;25973;52.368;4.940;2022-09-20T14:05:21;16.90;99.90
40255;DHT22;25973;52.368;4.940;2022-09-20T14:07:51;16.90;99.90
40255;DHT22;25973;52.368;4.940;2022-09-20T14:10:35;16.90;99.90
40255;DHT22;25973;52.368;4.940;2022-09-20T14:13:05;16.80;99.90
40255;DHT22;25973;52.368;4.940;2022-09-20T14:15:40;16.70;99.90
40255;DHT22;25973;52.368;4.940;2022-09-20T14:18:11;16.60;99.90
40255;DHT22;25973;52.368;4.940;2022-09-20T14:20:40;16.50;99.90
40255;DHT22;25973;52.368;4.940;2022-09-20T14:23:20;16.50;99.90
40255;DHT22;25973;52.368;4.940;2022-09-20T14:26:25;16.50;99.90
40255;DHT22;25973;52.368;4.940;2022-09-20T14:28:55;16.60;99.90
40255;DHT22;25973;52.368;4.940;2022-09-20T14:31:22;16.50;99.90
40255;DHT22;25973;52.368;4.940;2022-09-20T14:33:52;16.50;99.90
40255;DHT22;25973;52.368;4.940;2022-09-20T14:36:24;16.50;99.90
40255;DHT22;25973;52.368;4.940;2022-09-20T14:38:56;16.60;99.90
40255;DHT22;25973;52.368;4.940;2022-09-20T14:41:25;16.60;99.90
40255;DHT22;25973;52.368;4.940;2022-09-20T14:43:55;16.70;99.90
40255;DHT22;25973;52.368;4.940;2022-09-20T14:46:31;16.80;99.90
40255;DHT22;25973;52.368;4.940;2022-09-20T14:51:48;17.00;99.90
40255;DHT22;25973;52.368;4.940;2022-09-20T14:54:23;17.10;99.90
40255;DHT22;25973;52.368;4.940;2022-09-20T14:56:49;17.10;99.90
40255;DHT22;25973;52.368;4.940;2022-09-20T14:59:19;17.20;99.90
40255;DHT22;25973;52.368;4.940;2022-09-20T15:02:07;17.20;99.90
40255;DHT22;25973;52.368;4.940;2022-09-20T15:04:36;17.30;99.90
40255;DHT22;25973;52.368;4.940;2022-09-20T15:07:05;17.30;99.90
40255;DHT22;25973;52.368;4.940;2022-09-20T15:09:32;17.40;99.90
40255;DHT22;25973;52.368;4.940;2022-09-20T15:12:03;17.30;99.90
40255;DHT22;25973;52.368;4.940;2022-09-20T15:14:28;17.30;99.90
40255;DHT22;25973;52.368;4.940;2022-09-20T15:16:54;17.40;99.90
40255;DHT22;25973;52.368;4.940;2022-09-20T15:19:21;17.40;99.90
40255;DHT22;25973;52.368;4.940;2022-09-20T15:21:46;17.40;99.90
40255;DHT22;25973;52.368;4.940;2022-09-20T15:24:12;17.40;99.90
40255;DHT22;25973;52.368;4.940;2022-09-20T15:26:38;17.50;99.90
40255;DHT22;25973;52.368;4.940;2022-09-20T15:29:04;17.50;99.90
40255;DHT22;25973;52.368;4.940;2022-09-20T15:31:30;17.50;99.90
40255;DHT22;25973;52.368;4.940;2022-09-20T15:33:55;17.50;99.90
40255;DHT22;25973;52.368;4.940;2022-09-20T15:36:21;17.50;99.90
40255;DHT22;25973;52.368;4.940;2022-09-20T15:38:47;17.40;99.90
40255;DHT22;25973;52.368;4.940;2022-09-20T15:41:12;17.40;99.90
40255;DHT22;25973;52.368;4.940;2022-09-20T15:43:39;17.40;99.90
40255;DHT22;25973;52.368;4.940;2022-09-20T15:46:19;17.30;99.90
40255;DHT22;25973;52.368;4.940;2022-09-20T15:48:45;17.30;99.90
40255;DHT22;25973;52.368;4.940;2022-09-20T15:51:11;17.20;99.90
40255;DHT22;25973;52.368;4.940;2022-09-20T15:53:45;17.20;99.90
40255;DHT22;25973;52.368;4.940;2022-09-20T15:56:19;17.10;99.90
40255;DHT22;25973;52.368;4.940;2022-09-20T15:58:47;17.00;99.90
40255;DHT22;25973;52.368;4.940;2022-09-20T16:01:13;17.00;99.90
40255;DHT22;25973;52.368;4.940;2022-09-20T16:03:41;16.90;99.90
40255;DHT22;25973;52.368;4.940;2022-09-20T16:06:08;16.90;99.90
40255;DHT22;25973;52.368;4.940;2022-09-20T16:08:38;16.90;99.90
40255;DHT22;25973;52.368;4.940;2022-09-20T16:11:06;16.90;99.90
40255;DHT22;25973;52.368;4.940;2022-09-20T16:13:32;16.80;99.90
40255;DHT22;25973;52.368;4.940;2022-09-20T16:16:01;16.90;99.90
40255;DHT22;25973;52.368;4.940;2022-09-20T16:18:27;16.90;99.90
40255;DHT22;25973;52.368;4.940;2022-09-20T16:21:13;16.90;99.90
40255;DHT22;25973;52.368;4.940;2022-09-20T16:23:46;16.90;99.90
40255;DHT22;25973;52.368;4.940;2022-09-20T16:26:12;16.90;99.90
40255;DHT22;25973;52.368;4.940;2022-09-20T16:28:41;16.90;99.90
40255;DHT22;25973;52.368;4.940;2022-09-20T16:31:45;16.90;99.90
40255;DHT22;25973;52.368;4.940;2022-09-20T16:34:21;16.90;99.90
40255;DHT22;25973;52.368;4.940;2022-09-20T16:36:49;16.90;99.90
40255;DHT22;25973;52.368;4.940;2022-09-20T16:39:16;16.70;99.90
40255;DHT22;25973;52.368;4.940;2022-09-20T16:41:44;16.60;99.90
40255;DHT22;25973;52.368;4.940;2022-09-20T16:44:11;16.50;99.90
40255;DHT22;25973;52.368;4.940;2022-09-20T16:46:37;16.50;99.90
40255;DHT22;25973;52.368;4.940;2022-09-20T16:49:04;16.40;99.90
40255;DHT22;25973;52.368;4.940;2022-09-20T16:51:34;16.30;99.90
40255;DHT22;25973;52.368;4.940;2022-09-20T16:54:02;16.20;99.90
40255;DHT22;25973;52.368;4.940;2022-09-20T16:56:30;16.10;99.90
40255;DHT22;25973;52.368;4.940;2022-09-20T16:58:59;16.10;99.90
40255;DHT22;25973;52.368;4.940;2022-09-20T17:01:25;16.00;99.90
40255;DHT22;25973;52.368;4.940;2022-09-20T17:03:52;15.90;99.90
40255;DHT22;25973;52.368;4.940;2022-09-20T17:06:18;15.90;99.90
40255;DHT22;25973;52.368;4.940;2022-09-20T17:08:44;15.80;99.90
40255;DHT22;25973;52.368;4.940;2022-09-20T17:11:15;15.80;99.90
40255;DHT22;25973;52.368;4.940;2022-09-20T17:13:42;15.80;99.90
40255;DHT22;25973;52.368;4.940;2022-09-20T17:16:13;15.80;99.90
40255;DHT22;25973;52.368;4.940;2022-09-20T17:18:39;15.80;99.90
40255;DHT22;25973;52.368;4.940;2022-09-20T17:21:09;15.70;99.90
40255;DHT22;25973;52.368;4.940;2022-09-20T17:23:37;15.70;99.90
40255;DHT22;25973;52.368;4.940;2022-09-20T17:26:05;15.60;99.90
40255;DHT22;25973;52.368;4.940;2022-09-20T17:28:35;15.70;99.90
40255;DHT22;25973;52.368;4.940;2022-09-20T17:31:02;15.70;99.90
40255;DHT22;25973;52.368;4.940;2022-09-20T17:33:28;15.60;99.90
40255;DHT22;25973;52.368;4.940;2022-09-20T17:35:56;15.60;99.90
40255;DHT22;25973;52.368;4.940;2022-09-20T17:38:26;15.50;99.90
40255;DHT22;25973;52.368;4.940;2022-09-20T17:41:03;15.50;99.90
40255;DHT22;25973;52.368;4.940;2022-09-20T17:43:34;15.40;99.90
40255;DHT22;25973;52.368;4.940;2022-09-20T17:46:11;15.50;99.90
40255;DHT22;25973;52.368;4.940;2022-09-20T17:48:38;15.50;99.90
40255;DHT22;25973;52.368;4.940;2022-09-20T17:51:05;15.40;99.90
40255;DHT22;25973;52.368;4.940;2022-09-20T17:53:32;15.40;99.90
40255;DHT22;25973;52.368;4.940;2022-09-20T17:55:59;15.40;99.90
40255;DHT22;25973;52.368;4.940;2022-09-20T17:58:26;15.40;99.90
40255;DHT22;25973;52.368;4.940;2022-09-20T18:00:52;15.40;99.90
40255;DHT22;25973;52.368;4.940;2022-09-20T18:03:23;15.40;99.90
40255;DHT22;25973;52.368;4.940;2022-09-20T18:05:49;15.40;99.90
40255;DHT22;25973;52.368;4.940;2022-09-20T18:08:16;15.40;99.90
40255;DHT22;25973;52.368;4.940;2022-09-20T18:10:55;15.40;99.90
40255;DHT22;25973;52.368;4.940;2022-09-20T18:13:24;15.40;99.90
40255;DHT22;25973;52.368;4.940;2022-09-20T18:15:52;15.40;99.90
40255;DHT22;25973;52.368;4.940;2022-09-20T18:18:19;15.40;99.90
40255;DHT22;25973;52.368;4.940;2022-09-20T18:20:45;15.40;99.90
40255;DHT22;25973;52.368;4.940;2022-09-20T18:23:10;15.40;99.90
40255;DHT22;25973;52.368;4.940;2022-09-20T18:25:36;15.40;99.90
40255;DHT22;25973;52.368;4.940;2022-09-20T18:28:21;15.40;99.90
40255;DHT22;25973;52.368;4.940;2022-09-20T18:30:47;15.40;99.90
40255;DHT22;25973;52.368;4.940;2022-09-20T18:33:22;15.40;99.90
40255;DHT22;25973;52.368;4.940;2022-09-20T18:35:49;15.30;99.90
40255;DHT22;25973;52.368;4.940;2022-09-20T18:38:14;15.30;99.90
40255;DHT22;25973;52.368;4.940;2022-09-20T18:40:42;15.30;99.90
40255;DHT22;25973;52.368;4.940;2022-09-20T18:43:08;15.30;99.90
40255;DHT22;25973;52.368;4.940;2022-09-20T18:45:33;15.30;99.90
40255;DHT22;25973;52.368;4.940;2022-09-20T18:47:59;15.20;99.90
40255;DHT22;25973;52.368;4.940;2022-09-20T18:50:25;15.30;99.90
40255;DHT22;25973;52.368;4.940;2022-09-20T18:52:54;15.20;99.90
40255;DHT22;25973;52.368;4.940;2022-09-20T18:55:19;15.30;99.90
40255;DHT22;25973;52.368;4.940;2022-09-20T18:57:48;15.30;99.90
40255;DHT22;25973;52.368;4.940;2022-09-20T19:00:14;15.30;99.90
40255;DHT22;25973;52.368;4.940;2022-09-20T19:05:32;15.30;99.90
40255;DHT22;25973;52.368;4.940;2022-09-20T19:08:22;15.40;99.90
40255;DHT22;25973;52.368;4.940;2022-09-20T19:10:57;15.30;99.90
40255;DHT22;25973;52.368;4.940;2022-09-20T19:24:29;15.40;99.90
40255;DHT22;25973;52.368;4.940;2022-09-20T19:26:57;15.40;99.90
40255;DHT22;25973;52.368;4.940;2022-09-20T19:29:25;15.40;99.90
40255;DHT22;25973;52.368;4.940;2022-09-20T19:31:56;15.40;99.90
40255;DHT22;25973;52.368;4.940;2022-09-20T19:34:29;15.40;99.90
40255;DHT22;25973;52.368;4.940;2022-09-20T19:37:22;15.40;99.90
40255;DHT22;25973;52.368;4.940;2022-09-20T19:42:38;15.40;99.90
40255;DHT22;25973;52.368;4.940;2022-09-20T19:45:28;15.40;99.90
40255;DHT22;25973;52.368;4.940;2022-09-20T19:50:52;15.40;99.90
40255;DHT22;25973;52.368;4.940;2022-09-20T19:53:20;15.40;99.90
40255;DHT22;25973;52.368;4.940;2022-09-20T19:55:54;15.40;99.90
40255;DHT22;25973;52.368;4.940;2022-09-20T19:58:21;15.40;99.90
40255;DHT22;25973;52.368;4.940;2022-09-20T20:00:48;15.40;99.90
40255;DHT22;25973;52.368;4.940;2022-09-20T20:03:14;15.40;99.90
40255;DHT22;25973;52.368;4.940;2022-09-20T20:05:49;15.40;99.90
40255;DHT22;25973;52.368;4.940;2022-09-20T20:08:29;15.40;99.90
40255;DHT22;25973;52.368;4.940;2022-09-20T20:11:07;15.40;99.90
40255;DHT22;25973;52.368;4.940;2022-09-20T20:17:01;15.40;99.90
40255;DHT22;25973;52.368;4.940;2022-09-20T20:22:36;15.40;99.90
40255;DHT22;25973;52.368;4.940;2022-09-20T20:25:25;15.40;99.90
40255;DHT22;25973;52.368;4.940;2022-09-20T20:27:53;15.40;99.90
40255;DHT22;25973;52.368;4.940;2022-09-20T20:30:18;15.40;99.90
40255;DHT22;25973;52.368;4.940;2022-09-20T20:32:44;15.40;99.90
40255;DHT22;25973;52.368;4.940;2022-09-20T20:35:10;15.30;99.90
40255;DHT22;25973;52.368;4.940;2022-09-20T20:37:38;15.40;99.90
40255;DHT22;25973;52.368;4.940;2022-09-20T20:40:04;15.40;99.90
40255;DHT22;25973;52.368;4.940;2022-09-20T20:42:31;15.40;99.90
40255;DHT22;25973;52.368;4.940;2022-09-20T20:44:56;15.40;99.90
40255;DHT22;25973;52.368;4.940;2022-09-20T20:47:23;15.40;99.90
40255;DHT22;25973;52.368;4.940;2022-09-20T20:49:48;15.30;99.90
40255;DHT22;25973;52.368;4.940;2022-09-20T20:52:17;15.30;99.90
40255;DHT22;25973;52.368;4.940;2022-09-20T20:54:43;15.30;99.90
40255;DHT22;25973;52.368;4.940;2022-09-20T20:57:17;15.30;99.90
40255;DHT22;25973;52.368;4.940;2022-09-20T20:59:44;15.20;99.90
40255;DHT22;25973;52.368;4.940;2022-09-20T21:02:09;15.20;99.90
40255;DHT22;25973;52.368;4.940;2022-09-20T21:04:35;15.20;99.90
40255;DHT22;25973;52.368;4.940;2022-09-20T21:07:01;15.20;99.90
40255;DHT22;25973;52.368;4.940;2022-09-20T21:09:27;15.10;99.90
40255;DHT22;25973;52.368;4.940;2022-09-20T21:11:52;15.10;99.90
40255;DHT22;25973;52.368;4.940;2022-09-20T21:14:18;15.00;99.90
40255;DHT22;25973;52.368;4.940;2022-09-20T21:16:44;15.00;99.90
40255;DHT22;25973;52.368;4.940;2022-09-20T21:19:11;15.00;99.90
40255;DHT22;25973;52.368;4.940;2022-09-20T21:21:40;15.00;99.90
40255;DHT22;25973;52.368;4.940;2022-09-20T21:24:11;15.00;99.90
40255;DHT22;25973;52.368;4.940;2022-09-20T21:26:37;14.90;99.90
40255;DHT22;25973;52.368;4.940;2022-09-20T21:29:06;14.90;99.90
40255;DHT22;25973;52.368;4.940;2022-09-20T21:31:34;14.80;99.90